Time;durP1;ratioP1;P1;durP2;ratioP2;P2;SDS_P1;SDS_P2;PMS_P1;PMS_P2;Temp;Humidity;BMP_temperature;BMP_pressure;BME280_temperature;BME280_humidity;BME280_pressure;Samples;Min_cycle;Max_cycle;Signal;HPM_P1;HPM_P2
2021/12/31 00:00:46;;;;;;;;;;;14.10;1.00;;;;;;5112130;28;20001;-81
2021/12/31 00:03:12;;;;;;;;;;;14.10;1.00;;;;;;5115139;28;19912;-81
2021/12/31 00:05:37;;;;;;;;;;;14.00;1.00;;;;;;5114206;28;19916;-81
2021/12/31 00:08:03;;;;;;;;;;;14.20;1.00;;;;;;5111278;28;19912;-81
2021/12/31 00:10:29;;;;;;;;;;;14.10;1.00;;;;;;5111268;28;19912;-81
2021/12/31 00:12:56;;;;;;;;;;;14.20;1.00;;;;;;5113989;28;19912;-81
2021/12/31 00:15:22;;;;;;;;;;;14.10;1.00;;;;;;5110480;28;20290;-81
2021/12/31 00:17:47;;;;;;;;;;;14.10;1.00;;;;;;5119769;28;19908;-81
2021/12/31 00:20:19;;;;;;;;;;;14.10;99.90;;;;;;5115198;28;20365;-81
2021/12/31 00:23:02;;;;;;;;;;;14.10;99.90;;;;;;5120489;28;19999;-81
2021/12/31 00:25:27;;;;;;;;;;;14.10;99.90;;;;;;5112124;28;19912;-81
2021/12/31 00:27:54;;;;;;;;;;;14.10;99.90;;;;;;5101799;28;19919;-81
2021/12/31 00:30:19;;;;;;;;;;;14.10;99.90;;;;;;5111357;28;19931;-81
2021/12/31 00:32:46;;;;;;;;;;;14.10;99.90;;;;;;5116099;28;19911;-81
2021/12/31 00:35:12;;;;;;;;;;;14.10;99.90;;;;;;5111234;28;19915;-81
2021/12/31 00:37:39;;;;;;;;;;;14.10;99.90;;;;;;5118525;28;19919;-81
2021/12/31 00:40:06;;;;;;;;;;;14.10;99.90;;;;;;5120683;28;19911;-81
2021/12/31 00:42:31;;;;;;;;;;;14.10;99.90;;;;;;5118407;28;20034;-81
2021/12/31 00:44:57;;;;;;;;;;;14.00;99.90;;;;;;5121251;28;19943;-81
2021/12/31 00:47:22;;;;;;;;;;;14.00;99.90;;;;;;5118839;28;19915;-81
2021/12/31 00:49:48;;;;;;;;;;;14.10;99.90;;;;;;5113277;28;19920;-81
2021/12/31 00:52:14;;;;;;;;;;;14.00;99.90;;;;;;5119795;28;20549;-80
2021/12/31 00:54:40;;;;;;;;;;;14.00;99.90;;;;;;5117403;28;19999;-80
2021/12/31 00:57:06;;;;;;;;;;;14.00;99.90;;;;;;5114673;28;19965;-82
2021/12/31 00:59:31;;;;;;;;;;;14.00;99.90;;;;;;5118592;28;19904;-81
2021/12/31 01:01:57;;;;;;;;;;;14.10;99.90;;;;;;5109283;28;19918;-81
2021/12/31 01:04:23;;;;;;;;;;;14.00;99.90;;;;;;5119997;28;19915;-81
2021/12/31 01:06:48;;;;;;;;;;;14.00;99.90;;;;;;5117101;28;19912;-81
2021/12/31 01:09:14;;;;;;;;;;;14.00;99.90;;;;;;5119198;28;19908;-81
2021/12/31 01:11:42;;;;;;;;;;;14.00;99.90;;;;;;5115209;28;19962;-81
2021/12/31 01:14:17;;;;;;;;;;;14.00;99.90;;;;;;5121318;28;19911;-81
2021/12/31 01:16:49;;;;;;;;;;;14.00;99.90;;;;;;5121150;28;19947;-81
2021/12/31 01:21:39;;;;;;;;;;;14.00;99.90;;;;;;5120850;28;19911;-81
2021/12/31 01:24:05;;;;;;;;;;;14.00;99.90;;;;;;5122034;28;19912;-81
2021/12/31 01:26:32;;;;;;;;;;;14.00;99.90;;;;;;5118680;28;19937;-82
2021/12/31 01:28:58;;;;;;;;;;;14.10;99.90;;;;;;5117281;28;19908;-82
2021/12/31 01:31:24;;;;;;;;;;;14.10;99.90;;;;;;5117978;28;19912;-81
2021/12/31 01:33:50;;;;;;;;;;;14.00;99.90;;;;;;5120062;28;19951;-81
2021/12/31 01:36:15;;;;;;;;;;;14.10;99.90;;;;;;5102934;28;19915;-81
2021/12/31 01:38:41;;;;;;;;;;;14.10;99.90;;;;;;5119755;28;19947;-82
2021/12/31 01:41:06;;;;;;;;;;;14.10;99.90;;;;;;5119368;28;20006;-81
2021/12/31 01:43:32;;;;;;;;;;;14.20;99.90;;;;;;5119358;28;19978;-81
2021/12/31 01:46:00;;;;;;;;;;;14.10;99.90;;;;;;5110897;28;20391;-82
2021/12/31 01:48:47;;;;;;;;;;;14.10;99.90;;;;;;5120211;28;19961;-81
2021/12/31 01:51:12;;;;;;;;;;;14.10;99.90;;;;;;5118357;28;20013;-82
2021/12/31 01:53:38;;;;;;;;;;;14.10;99.90;;;;;;5118772;28;19935;-81
2021/12/31 01:56:04;;;;;;;;;;;14.10;99.90;;;;;;5114372;28;19912;-81
2021/12/31 01:58:30;;;;;;;;;;;14.10;99.90;;;;;;5120529;28;19931;-81
2021/12/31 02:00:56;;;;;;;;;;;14.20;99.90;;;;;;5118020;28;19915;-81
2021/12/31 02:03:22;;;;;;;;;;;14.00;99.90;;;;;;5106540;28;19919;-81
2021/12/31 02:05:48;;;;;;;;;;;14.10;99.90;;;;;;5113002;28;19911;-80
2021/12/31 02:08:14;;;;;;;;;;;14.10;99.90;;;;;;5110916;28;20352;-81
2021/12/31 02:10:40;;;;;;;;;;;14.10;99.90;;;;;;5119877;28;19907;-80
2021/12/31 02:13:07;;;;;;;;;;;14.10;99.90;;;;;;5123542;28;20147;-80
2021/12/31 02:15:33;;;;;;;;;;;14.10;99.90;;;;;;5121870;28;19916;-80
2021/12/31 02:18:00;;;;;;;;;;;14.10;99.90;;;;;;5125273;28;20027;-81
2021/12/31 02:20:36;;;;;;;;;;;14.10;99.90;;;;;;5117556;28;19943;-81
2021/12/31 02:23:08;;;;;;;;;;;14.10;99.90;;;;;;5118680;28;19916;-82
2021/12/31 02:25:36;;;;;;;;;;;14.10;99.90;;;;;;5113032;28;19919;-81
2021/12/31 02:28:01;;;;;;;;;;;14.10;99.90;;;;;;5115037;28;19920;-81
2021/12/31 02:30:29;;;;;;;;;;;14.10;99.90;;;;;;5113832;28;19941;-82
2021/12/31 02:32:55;;;;;;;;;;;14.10;99.90;;;;;;5117443;28;20354;-81
2021/12/31 02:35:20;;;;;;;;;;;14.10;99.90;;;;;;5118221;28;19927;-81
2021/12/31 02:37:45;;;;;;;;;;;14.10;99.90;;;;;;5115107;28;19916;-81
2021/12/31 02:40:14;;;;;;;;;;;14.10;99.90;;;;;;5109941;28;19963;-81
2021/12/31 02:42:40;;;;;;;;;;;14.10;99.90;;;;;;5121633;28;19912;-81
2021/12/31 02:45:07;;;;;;;;;;;14.10;99.90;;;;;;5109868;28;20007;-81
2021/12/31 02:47:33;;;;;;;;;;;14.10;99.90;;;;;;5120502;28;19916;-81
2021/12/31 02:49:58;;;;;;;;;;;14.10;99.90;;;;;;5117381;28;19919;-81
2021/12/31 02:52:24;;;;;;;;;;;14.10;99.90;;;;;;5106903;28;20016;-81
2021/12/31 02:54:53;;;;;;;;;;;14.10;99.90;;;;;;5109159;28;20004;-81
2021/12/31 02:57:20;;;;;;;;;;;14.10;99.90;;;;;;5110966;28;20284;-81
2021/12/31 02:59:46;;;;;;;;;;;14.10;99.90;;;;;;5105973;28;19918;-81
2021/12/31 03:02:12;;;;;;;;;;;14.10;75.50;;;;;;5108460;28;19943;-82
2021/12/31 03:04:39;;;;;;;;;;;14.20;76.50;;;;;;5118420;28;19933;-81
2021/12/31 03:07:05;;;;;;;;;;;14.20;76.60;;;;;;5115552;28;19962;-81
2021/12/31 03:09:31;;;;;;;;;;;14.10;81.70;;;;;;5119001;28;20371;-81
2021/12/31 03:11:57;;;;;;;;;;;14.10;90.70;;;;;;5110930;28;20272;-81
2021/12/31 03:14:24;;;;;;;;;;;14.10;99.90;;;;;;5117318;28;19911;-81
2021/12/31 03:16:50;;;;;;;;;;;14.10;98.00;;;;;;5106460;28;19968;-81
2021/12/31 03:19:16;;;;;;;;;;;14.10;99.90;;;;;;5117924;28;19912;-81
2021/12/31 03:21:42;;;;;;;;;;;14.10;99.90;;;;;;5109707;28;19911;-81
2021/12/31 03:24:07;;;;;;;;;;;14.10;99.90;;;;;;5117579;28;19915;-81
2021/12/31 03:26:34;;;;;;;;;;;14.00;93.70;;;;;;5116127;28;19941;-81
2021/12/31 03:29:00;;;;;;;;;;;14.10;92.00;;;;;;5116945;28;19908;-81
2021/12/31 03:31:26;;;;;;;;;;;14.00;96.40;;;;;;5116489;28;19920;-81
2021/12/31 03:33:52;;;;;;;;;;;14.00;82.10;;;;;;5109635;28;19968;-81
2021/12/31 03:36:17;;;;;;;;;;;14.00;73.20;;;;;;5112401;28;19912;-81
2021/12/31 03:38:43;;;;;;;;;;;14.00;57.20;;;;;;5110929;28;19908;-81
2021/12/31 03:41:08;;;;;;;;;;;14.00;35.80;;;;;;5106874;28;19930;-81
2021/12/31 03:43:34;;;;;;;;;;;14.10;25.10;;;;;;5117015;28;19961;-82
2021/12/31 03:45:59;;;;;;;;;;;13.90;19.30;;;;;;5113276;28;20002;-81
2021/12/31 03:48:25;;;;;;;;;;;14.00;25.30;;;;;;5119134;28;19916;-82
2021/12/31 03:50:50;;;;;;;;;;;13.90;20.40;;;;;;5115479;28;19908;-81
2021/12/31 03:53:16;;;;;;;;;;;14.00;24.70;;;;;;5120590;28;19934;-81
2021/12/31 03:55:42;;;;;;;;;;;14.00;26.40;;;;;;5110482;28;19916;-81
2021/12/31 03:58:07;;;;;;;;;;;13.80;37.50;;;;;;5106709;28;19916;-81
2021/12/31 04:00:32;;;;;;;;;;;13.80;49.10;;;;;;5107200;28;19914;-81
2021/12/31 04:03:04;;;;;;;;;;;13.70;60.00;;;;;;5120913;28;19918;-81
2021/12/31 04:05:29;;;;;;;;;;;13.70;64.60;;;;;;5121078;28;19908;-81
2021/12/31 04:07:55;;;;;;;;;;;13.60;73.60;;;;;;5122137;28;20376;-82
2021/12/31 04:10:23;;;;;;;;;;;13.60;94.20;;;;;;5116818;28;19916;-81
2021/12/31 04:12:48;;;;;;;;;;;13.60;99.90;;;;;;5106168;28;19943;-80
2021/12/31 04:15:14;;;;;;;;;;;13.60;99.90;;;;;;5109545;28;20595;-81
2021/12/31 04:17:40;;;;;;;;;;;13.60;99.90;;;;;;5116159;28;19915;-81
2021/12/31 04:20:07;;;;;;;;;;;13.60;99.90;;;;;;5107854;28;19912;-81
2021/12/31 04:22:33;;;;;;;;;;;13.60;99.90;;;;;;5117476;28;19912;-81
2021/12/31 04:24:58;;;;;;;;;;;13.60;99.90;;;;;;5104484;28;20046;-81
2021/12/31 04:27:24;;;;;;;;;;;13.60;99.90;;;;;;5117296;28;20010;-81
2021/12/31 04:29:52;;;;;;;;;;;13.60;99.90;;;;;;5106585;28;20360;-81
2021/12/31 04:32:19;;;;;;;;;;;13.60;99.50;;;;;;5104479;28;19912;-80
2021/12/31 04:34:44;;;;;;;;;;;13.60;90.40;;;;;;5120108;28;19923;-81
2021/12/31 04:37:10;;;;;;;;;;;13.60;85.70;;;;;;5116343;28;19983;-81
2021/12/31 04:39:36;;;;;;;;;;;13.50;77.00;;;;;;5119595;28;19979;-81
2021/12/31 04:42:02;;;;;;;;;;;13.50;78.30;;;;;;5116330;28;19963;-81
2021/12/31 04:44:27;;;;;;;;;;;13.50;91.30;;;;;;5129919;22;19924;-80
2021/12/31 04:46:53;;;;;;;;;;;13.50;98.20;;;;;;5097878;28;19913;-80
2021/12/31 04:49:18;;;;;;;;;;;13.50;94.10;;;;;;5088063;28;19908;-81
2021/12/31 04:51:44;;;;;;;;;;;13.50;95.90;;;;;;5098310;28;19912;-80
2021/12/31 04:54:14;;;;;;;;;;;13.50;93.20;;;;;;5105373;28;19920;-79
2021/12/31 04:56:40;;;;;;;;;;;13.50;98.10;;;;;;5104285;28;20181;-80
2021/12/31 04:59:05;;;;;;;;;;;13.50;99.90;;;;;;5087531;28;19909;-80
2021/12/31 05:01:31;;;;;;;;;;;13.50;99.90;;;;;;5098525;28;20411;-81
2021/12/31 05:03:56;;;;;;;;;;;13.50;99.90;;;;;;5088053;28;20395;-79
2021/12/31 05:06:22;;;;;;;;;;;13.50;99.90;;;;;;5086544;28;19916;-79
2021/12/31 05:08:47;;;;;;;;;;;13.50;99.90;;;;;;5100113;28;19946;-81
2021/12/31 05:11:13;;;;;;;;;;;13.50;99.90;;;;;;5094890;28;20335;-80
2021/12/31 05:13:38;;;;;;;;;;;13.50;99.90;;;;;;5086004;28;19908;-81
2021/12/31 05:16:06;;;;;;;;;;;13.50;99.90;;;;;;5094417;28;20396;-81
2021/12/31 05:18:31;;;;;;;;;;;13.50;99.90;;;;;;5083576;28;19916;-80
2021/12/31 05:20:57;;;;;;;;;;;13.50;99.90;;;;;;5103486;28;19919;-81
2021/12/31 05:23:22;;;;;;;;;;;13.50;99.90;;;;;;5106256;28;19912;-80
2021/12/31 05:25:48;;;;;;;;;;;13.50;99.90;;;;;;5105036;28;19912;-80
2021/12/31 05:28:13;;;;;;;;;;;13.50;99.90;;;;;;5103742;28;19994;-80
2021/12/31 05:30:39;;;;;;;;;;;13.50;99.90;;;;;;5084477;28;19908;-80
2021/12/31 05:33:04;;;;;;;;;;;13.50;99.90;;;;;;5101669;28;19934;-81
2021/12/31 05:35:30;;;;;;;;;;;13.50;99.90;;;;;;5085238;28;19928;-81
2021/12/31 05:37:56;;;;;;;;;;;13.50;99.90;;;;;;5085676;28;19926;-81
2021/12/31 05:40:22;;;;;;;;;;;13.50;99.90;;;;;;5092700;28;19912;-80
2021/12/31 05:42:48;;;;;;;;;;;13.50;99.90;;;;;;5087146;28;20004;-81
2021/12/31 05:45:13;;;;;;;;;;;13.60;99.90;;;;;;5080896;28;20402;-80
2021/12/31 05:47:39;;;;;;;;;;;13.50;99.90;;;;;;5100644;28;19972;-80
2021/12/31 05:50:07;;;;;;;;;;;13.50;99.90;;;;;;5095153;28;21122;-79
2021/12/31 05:52:33;;;;;;;;;;;13.50;99.90;;;;;;5100205;28;19908;-80
2021/12/31 05:54:58;;;;;;;;;;;13.50;99.90;;;;;;5085628;28;19919;-81
2021/12/31 05:57:24;;;;;;;;;;;13.40;99.90;;;;;;5105641;28;19908;-80
2021/12/31 05:59:49;;;;;;;;;;;13.50;99.90;;;;;;5100199;28;20513;-80
2021/12/31 06:02:15;;;;;;;;;;;13.40;99.90;;;;;;5100353;28;19919;-80
2021/12/31 06:04:40;;;;;;;;;;;13.30;99.90;;;;;;5099010;28;19916;-79
2021/12/31 06:07:06;;;;;;;;;;;13.30;99.90;;;;;;5104238;28;19912;-79
2021/12/31 06:09:32;;;;;;;;;;;13.30;99.90;;;;;;5105261;28;19912;-80
2021/12/31 06:11:58;;;;;;;;;;;13.30;99.90;;;;;;5103612;28;19912;-80
2021/12/31 06:14:24;;;;;;;;;;;13.30;99.90;;;;;;5097251;28;19916;-79
2021/12/31 06:16:50;;;;;;;;;;;13.20;99.90;;;;;;5105202;28;20360;-80
2021/12/31 06:19:16;;;;;;;;;;;13.10;99.90;;;;;;5098409;28;19915;-81
2021/12/31 06:21:42;;;;;;;;;;;13.10;99.90;;;;;;5085526;28;19968;-81
2021/12/31 06:24:08;;;;;;;;;;;13.00;99.90;;;;;;5087191;28;19909;-81
2021/12/31 06:26:33;;;;;;;;;;;13.00;99.90;;;;;;5092513;28;19943;-81
2021/12/31 06:28:59;;;;;;;;;;;12.90;99.90;;;;;;5097289;28;19998;-80
2021/12/31 06:31:24;;;;;;;;;;;12.90;99.90;;;;;;5090572;28;19912;-80
2021/12/31 06:33:50;;;;;;;;;;;12.80;99.90;;;;;;5102615;28;20182;-80
2021/12/31 06:36:16;;;;;;;;;;;12.80;99.90;;;;;;5102629;28;19908;-79
2021/12/31 06:38:43;;;;;;;;;;;12.80;99.90;;;;;;5102289;28;20007;-81
2021/12/31 06:41:08;;;;;;;;;;;12.80;99.90;;;;;;5098849;28;19979;-79
2021/12/31 06:43:34;;;;;;;;;;;12.70;99.90;;;;;;5091509;28;19923;-81
2021/12/31 06:45:59;;;;;;;;;;;12.70;99.90;;;;;;5103887;28;19916;-80
2021/12/31 06:48:24;;;;;;;;;;;12.60;99.90;;;;;;5085011;28;19915;-78
2021/12/31 06:50:50;;;;;;;;;;;12.60;99.90;;;;;;5102354;28;19916;-80
2021/12/31 06:53:15;;;;;;;;;;;12.60;99.90;;;;;;5077193;28;19916;-80
2021/12/31 06:55:41;;;;;;;;;;;12.50;99.90;;;;;;5097908;28;19924;-81
2021/12/31 06:58:06;;;;;;;;;;;12.50;99.90;;;;;;5099309;28;19915;-80
2021/12/31 07:00:32;;;;;;;;;;;12.50;99.90;;;;;;5097603;28;19923;-79
2021/12/31 07:03:08;;;;;;;;;;;12.50;99.90;;;;;;5099070;28;19919;-80
2021/12/31 07:05:33;;;;;;;;;;;12.50;99.90;;;;;;5095143;28;20315;-80
2021/12/31 07:07:59;;;;;;;;;;;12.50;99.90;;;;;;5081287;28;19958;-80
2021/12/31 07:10:24;;;;;;;;;;;12.40;99.90;;;;;;5079185;28;19920;-79
2021/12/31 07:12:55;;;;;;;;;;;12.50;99.90;;;;;;5091102;28;19958;-79
2021/12/31 07:15:20;;;;;;;;;;;12.60;99.90;;;;;;5089735;28;20062;-80
2021/12/31 07:17:46;;;;;;;;;;;12.60;99.90;;;;;;5096139;28;19954;-80
2021/12/31 07:20:11;;;;;;;;;;;12.60;99.90;;;;;;5100797;28;19969;-80
2021/12/31 07:22:37;;;;;;;;;;;12.60;99.90;;;;;;5098589;28;20307;-81
2021/12/31 07:25:03;;;;;;;;;;;12.70;99.90;;;;;;5094912;28;19918;-80
2021/12/31 07:27:31;;;;;;;;;;;12.70;99.90;;;;;;5097689;28;20000;-80
2021/12/31 07:29:57;;;;;;;;;;;12.80;99.90;;;;;;5097369;28;19920;-80
2021/12/31 07:32:22;;;;;;;;;;;12.80;99.90;;;;;;5096667;28;20863;-81
2021/12/31 07:34:48;;;;;;;;;;;12.90;99.90;;;;;;5071453;28;20299;-82
2021/12/31 07:37:15;;;;;;;;;;;12.90;49.70;;;;;;5091723;28;21453;-82
2021/12/31 07:39:46;;;;;;;;;;;13.00;22.90;;;;;;5091673;28;19923;-81
2021/12/31 07:42:12;;;;;;;;;;;13.00;1.00;;;;;;5091843;28;19912;-81
2021/12/31 07:44:37;;;;;;;;;;;13.00;1.00;;;;;;5077032;28;19969;-83
2021/12/31 07:47:03;;;;;;;;;;;13.00;1.00;;;;;;5096293;28;19919;-82
2021/12/31 07:49:28;;;;;;;;;;;13.00;1.00;;;;;;5095302;28;19912;-81
2021/12/31 07:51:54;;;;;;;;;;;13.00;1.00;;;;;;5094598;28;19918;-81
2021/12/31 07:54:19;;;;;;;;;;;13.00;1.00;;;;;;5095663;28;19923;-83
2021/12/31 07:56:45;;;;;;;;;;;13.00;1.00;;;;;;5095448;28;19916;-83
2021/12/31 07:59:10;;;;;;;;;;;13.10;1.00;;;;;;5095969;28;20375;-83
2021/12/31 08:01:36;;;;;;;;;;;13.10;1.00;;;;;;5073462;28;20278;-82
2021/12/31 08:04:02;;;;;;;;;;;13.10;1.00;;;;;;5095573;28;19912;-82
2021/12/31 08:06:27;;;;;;;;;;;13.10;1.00;;;;;;5091738;28;19933;-82
2021/12/31 08:08:53;;;;;;;;;;;13.20;1.00;;;;;;5093551;28;19994;-82
2021/12/31 08:11:19;;;;;;;;;;;13.20;1.00;;;;;;5090551;28;19920;-83
2021/12/31 08:13:44;;;;;;;;;;;13.20;1.00;;;;;;5093896;28;19919;-81
2021/12/31 08:16:09;;;;;;;;;;;13.20;99.90;;;;;;5093137;28;20403;-81
2021/12/31 08:18:35;;;;;;;;;;;13.20;99.90;;;;;;5074176;28;19912;-81
2021/12/31 08:21:00;;;;;;;;;;;13.30;99.90;;;;;;5100626;28;20029;-81
2021/12/31 08:23:26;;;;;;;;;;;13.30;99.90;;;;;;5100381;28;19908;-81
2021/12/31 08:25:51;;;;;;;;;;;13.50;99.90;;;;;;5102219;28;20424;-81
2021/12/31 08:28:17;;;;;;;;;;;13.50;99.90;;;;;;5104325;28;19916;-81
2021/12/31 08:30:42;;;;;;;;;;;13.60;4.50;;;;;;5105037;28;20272;-80
2021/12/31 08:33:08;;;;;;;;;;;13.50;1.00;;;;;;5103577;28;19908;-81
2021/12/31 08:35:33;;;;;;;;;;;13.50;1.00;;;;;;5103797;28;19934;-81
2021/12/31 08:37:59;;;;;;;;;;;13.50;1.00;;;;;;5106706;28;19908;-81
2021/12/31 08:40:24;;;;;;;;;;;13.50;1.00;;;;;;5107076;28;19953;-81
2021/12/31 08:42:50;;;;;;;;;;;13.40;1.00;;;;;;5105993;28;19942;-81
2021/12/31 08:45:15;;;;;;;;;;;13.40;1.00;;;;;;5088926;28;19916;-81
2021/12/31 08:47:41;;;;;;;;;;;13.40;1.00;;;;;;5108487;28;19991;-81
2021/12/31 08:50:10;;;;;;;;;;;13.40;1.00;;;;;;5111952;28;19915;-81
2021/12/31 08:52:35;;;;;;;;;;;13.40;1.00;;;;;;5091519;28;19915;-82
2021/12/31 08:55:00;;;;;;;;;;;13.40;99.90;;;;;;5105340;28;19915;-82
2021/12/31 08:57:26;;;;;;;;;;;13.50;99.90;;;;;;5090054;28;19933;-80
2021/12/31 08:59:51;;;;;;;;;;;13.50;99.90;;;;;;5106951;28;19914;-80
2021/12/31 09:02:17;;;;;;;;;;;13.60;99.90;;;;;;5106850;28;19918;-81
2021/12/31 09:04:42;;;;;;;;;;;13.70;99.90;;;;;;5107172;28;19908;-81
2021/12/31 09:07:08;;;;;;;;;;;13.60;2.60;;;;;;5106263;28;20397;-81
2021/12/31 09:09:33;;;;;;;;;;;13.70;1.00;;;;;;5103235;28;19908;-80
2021/12/31 09:11:59;;;;;;;;;;;13.80;1.00;;;;;;5096313;28;19908;-81
2021/12/31 09:14:24;;;;;;;;;;;13.90;1.00;;;;;;5106630;28;19961;-82
2021/12/31 09:16:50;;;;;;;;;;;14.10;99.90;;;;;;5106832;28;19912;-81
2021/12/31 09:19:16;;;;;;;;;;;14.20;81.20;;;;;;5105595;28;19915;-81
2021/12/31 09:21:41;;;;;;;;;;;14.20;1.00;;;;;;5107126;28;19929;-81
2021/12/31 09:24:07;;;;;;;;;;;14.30;99.90;;;;;;5105444;28;20280;-81
2021/12/31 09:26:33;;;;;;;;;;;14.30;99.90;;;;;;5102912;28;19991;-81
2021/12/31 09:28:58;;;;;;;;;;;14.30;1.00;;;;;;5101901;28;20351;-81
2021/12/31 09:31:24;;;;;;;;;;;14.30;99.90;;;;;;5102692;28;19916;-80
2021/12/31 09:33:49;;;;;;;;;;;14.30;81.00;;;;;;5083767;28;20360;-81
2021/12/31 09:36:15;;;;;;;;;;;14.40;1.00;;;;;;5101888;28;19915;-81
2021/12/31 09:38:40;;;;;;;;;;;14.40;1.00;;;;;;5085042;28;19912;-80
2021/12/31 09:41:06;;;;;;;;;;;14.40;99.90;;;;;;5102120;28;20550;-81
2021/12/31 09:43:32;;;;;;;;;;;14.40;99.90;;;;;;5101713;28;19916;-81
2021/12/31 09:45:58;;;;;;;;;;;14.40;94.00;;;;;;5102445;28;19994;-81
2021/12/31 09:48:24;;;;;;;;;;;14.40;1.00;;;;;;5084236;28;19958;-81
2021/12/31 09:50:51;;;;;;;;;;;14.50;1.00;;;;;;5083616;28;20368;-81
2021/12/31 09:53:17;;;;;;;;;;;14.50;1.00;;;;;;5083802;28;19953;-81
2021/12/31 09:55:47;;;;;;;;;;;14.60;99.90;;;;;;5101356;28;19916;-80
2021/12/31 09:58:13;;;;;;;;;;;14.60;99.90;;;;;;5084253;28;19927;-81
2021/12/31 10:00:41;;;;;;;;;;;14.70;99.90;;;;;;5081487;28;19909;-81
2021/12/31 10:03:08;;;;;;;;;;;14.80;99.90;;;;;;5081748;28;19931;-81
2021/12/31 10:05:43;;;;;;;;;;;14.90;99.90;;;;;;5092425;28;19915;-80
2021/12/31 10:08:16;;;;;;;;;;;15.10;99.90;;;;;;5101774;28;19912;-80
2021/12/31 10:10:41;;;;;;;;;;;15.20;5.20;;;;;;5102918;28;19915;-80
2021/12/31 10:13:10;;;;;;;;;;;15.30;1.00;;;;;;5101836;28;19908;-78
2021/12/31 10:15:39;;;;;;;;;;;15.30;1.00;;;;;;5083878;28;19916;-80
2021/12/31 10:18:09;;;;;;;;;;;15.40;1.00;;;;;;5102011;28;19967;-81
2021/12/31 10:20:46;;;;;;;;;;;15.50;1.00;;;;;;5102299;28;19912;-81
2021/12/31 10:23:16;;;;;;;;;;;15.60;1.00;;;;;;5083621;28;19912;-79
2021/12/31 10:25:41;;;;;;;;;;;15.70;99.90;;;;;;5084091;28;20337;-80
2021/12/31 10:28:08;;;;;;;;;;;15.80;99.90;;;;;;5080281;28;19912;-80
2021/12/31 10:30:34;;;;;;;;;;;15.90;99.90;;;;;;5103048;28;19908;-80
2021/12/31 10:32:59;;;;;;;;;;;15.80;99.90;;;;;;5083287;28;19912;-80
2021/12/31 10:35:25;;;;;;;;;;;15.70;91.00;;;;;;5100502;28;19919;-80
2021/12/31 10:37:52;;;;;;;;;;;15.60;81.20;;;;;;5083210;28;19908;-80
2021/12/31 10:40:25;;;;;;;;;;;15.50;68.80;;;;;;5083587;28;19938;-80
2021/12/31 10:43:04;;;;;;;;;;;15.40;77.90;;;;;;5101091;28;19999;-81
2021/12/31 10:45:53;;;;;;;;;;;15.40;81.50;;;;;;5132756;22;19925;-82
2021/12/31 10:51:41;;;;;;;;;;;;;;;;;;;;;
2021/12/31 10:54:19;;;;;;;;;;;15.40;68.80;;;;;;5055116;28;20003;-82
2021/12/31 10:56:49;;;;;;;;;;;15.40;63.10;;;;;;5064118;28;19919;-81
2021/12/31 10:59:14;;;;;;;;;;;15.20;68.00;;;;;;5080545;28;19912;-81
2021/12/31 11:01:46;;;;;;;;;;;15.10;66.10;;;;;;5083251;28;19928;-79
2021/12/31 11:04:12;;;;;;;;;;;15.00;83.40;;;;;;5063314;28;19955;-81
2021/12/31 11:06:44;;;;;;;;;;;14.90;93.20;;;;;;5063739;28;19975;-79
2021/12/31 11:09:14;;;;;;;;;;;14.90;98.00;;;;;;5063906;28;20007;-81
2021/12/31 11:11:52;;;;;;;;;;;14.90;97.90;;;;;;5079252;28;20270;-81
2021/12/31 11:14:21;;;;;;;;;;;14.90;97.20;;;;;;5061807;28;19915;-81
2021/12/31 11:16:47;;;;;;;;;;;14.90;98.90;;;;;;5061191;28;19908;-81
2021/12/31 11:19:15;;;;;;;;;;;14.90;99.90;;;;;;5082792;28;19958;-81
2021/12/31 11:21:41;;;;;;;;;;;14.90;96.80;;;;;;5062073;28;19919;-82
2021/12/31 11:24:30;;;;;;;;;;;14.90;97.30;;;;;;5063230;28;19917;-81
2021/12/31 11:27:31;;;;;;;;;;;14.90;99.80;;;;;;5062062;28;19916;-81
2021/12/31 11:30:22;;;;;;;;;;;14.90;98.90;;;;;;5065690;28;20281;-79
2021/12/31 11:33:06;;;;;;;;;;;14.90;95.50;;;;;;5061035;28;19909;-81
2021/12/31 11:35:38;;;;;;;;;;;14.90;98.10;;;;;;5064729;28;19917;-81
2021/12/31 11:38:21;;;;;;;;;;;15.00;94.00;;;;;;5081686;28;20013;-81
2021/12/31 11:40:51;;;;;;;;;;;15.20;80.70;;;;;;5059536;28;19908;-81
2021/12/31 11:43:24;;;;;;;;;;;15.20;69.40;;;;;;5076099;28;19908;-80
2021/12/31 11:46:11;;;;;;;;;;;15.10;57.00;;;;;;5076339;28;19916;-81
2021/12/31 11:48:54;;;;;;;;;;;15.10;58.60;;;;;;5061582;28;20392;-82
2021/12/31 11:51:26;;;;;;;;;;;15.20;50.70;;;;;;5076816;28;20528;-82
2021/12/31 11:56:53;;;;;;;;;;;15.50;32.50;;;;;;5074934;28;19944;-81
2021/12/31 11:59:24;;;;;;;;;;;15.60;20.00;;;;;;5063401;28;19893;-82
2021/12/31 12:01:55;;;;;;;;;;;16.30;1.00;;;;;;5060779;28;19920;-81
2021/12/31 12:04:59;;;;;;;;;;;16.20;1.00;;;;;;5061026;28;20019;-82
2021/12/31 12:11:01;;;;;;;;;;;16.00;1.00;;;;;;5009430;28;19909;-80
2021/12/31 12:13:27;;;;;;;;;;;16.00;1.00;;;;;;5024777;28;19985;-81
2021/12/31 12:15:52;;;;;;;;;;;15.90;1.00;;;;;;5022747;28;19957;-81
2021/12/31 12:18:38;;;;;;;;;;;15.80;1.00;;;;;;5041568;28;19917;-81
2021/12/31 12:21:03;;;;;;;;;;;15.80;1.00;;;;;;5061218;28;19916;-82
2021/12/31 12:23:43;;;;;;;;;;;15.70;1.00;;;;;;5063017;28;19909;-80
2021/12/31 12:26:12;;;;;;;;;;;15.50;1.00;;;;;;5045259;28;20448;-81
2021/12/31 12:28:37;;;;;;;;;;;15.60;1.00;;;;;;5048659;28;19941;-81
2021/12/31 12:31:15;;;;;;;;;;;15.50;1.00;;;;;;5062210;28;19916;-81
2021/12/31 12:33:42;;;;;;;;;;;15.60;1.00;;;;;;5061234;28;19916;-81
2021/12/31 12:36:07;;;;;;;;;;;15.60;1.00;;;;;;5054799;28;19909;-81
2021/12/31 12:38:34;;;;;;;;;;;15.60;1.00;;;;;;5062534;28;19915;-81
2021/12/31 12:41:02;;;;;;;;;;;15.70;1.00;;;;;;5079833;28;19915;-81
2021/12/31 12:43:32;;;;;;;;;;;16.10;1.00;;;;;;5062271;28;19908;-81
2021/12/31 12:45:59;;;;;;;;;;;16.00;1.00;;;;;;5061894;28;19917;-81
2021/12/31 12:48:38;;;;;;;;;;;15.90;1.00;;;;;;5062217;28;19919;-81
2021/12/31 12:51:07;;;;;;;;;;;15.80;1.00;;;;;;5063033;28;19926;-81
2021/12/31 12:53:34;;;;;;;;;;;15.80;1.00;;;;;;5079711;28;19915;-81
2021/12/31 12:56:09;;;;;;;;;;;15.90;1.00;;;;;;5080156;28;19981;-81
2021/12/31 12:58:37;;;;;;;;;;;15.90;1.00;;;;;;5080657;28;19909;-81
2021/12/31 13:01:03;;;;;;;;;;;16.60;1.00;;;;;;5073372;28;19909;-82
2021/12/31 13:03:29;;;;;;;;;;;17.10;1.00;;;;;;5059247;28;19909;-81
2021/12/31 13:06:02;;;;;;;;;;;16.90;1.00;;;;;;5058915;28;19980;-81
2021/12/31 13:08:28;;;;;;;;;;;16.70;1.00;;;;;;5058618;28;19958;-81
2021/12/31 13:10:54;;;;;;;;;;;16.50;1.00;;;;;;5059209;28;19912;-81
2021/12/31 13:13:19;;;;;;;;;;;16.30;1.00;;;;;;5059393;28;20388;-81
2021/12/31 13:15:45;;;;;;;;;;;16.30;1.00;;;;;;5058965;28;20295;-81
2021/12/31 13:18:10;;;;;;;;;;;17.00;1.00;;;;;;5058333;28;19917;-81
2021/12/31 13:20:36;;;;;;;;;;;17.60;1.00;;;;;;5060611;28;19909;-81
2021/12/31 13:23:03;;;;;;;;;;;17.50;1.00;;;;;;5059059;28;19915;-82
2021/12/31 13:25:46;;;;;;;;;;;17.30;1.00;;;;;;5058545;28;19976;-81
2021/12/31 13:28:14;;;;;;;;;;;17.10;1.00;;;;;;5059102;28;20395;-81
2021/12/31 13:30:54;;;;;;;;;;;16.80;1.00;;;;;;5060492;28;19936;-81
2021/12/31 13:33:46;;;;;;;;;;;16.60;1.00;;;;;;5058979;28;19909;-81
2021/12/31 13:36:23;;;;;;;;;;;16.70;1.00;;;;;;5042914;28;19909;-82
2021/12/31 13:39:07;;;;;;;;;;;17.50;1.00;;;;;;5043524;28;19931;-82
2021/12/31 13:41:35;;;;;;;;;;;18.20;1.00;;;;;;5042725;28;20019;-83
2021/12/31 13:44:02;;;;;;;;;;;18.50;1.00;;;;;;5043267;28;19964;-82
2021/12/31 13:46:30;;;;;;;;;;;19.00;1.00;;;;;;5045127;28;19917;-82
2021/12/31 13:49:06;;;;;;;;;;;19.10;1.00;;;;;;5061871;28;20343;-82
2021/12/31 13:51:32;;;;;;;;;;;19.10;1.00;;;;;;5049182;28;20372;-82
2021/12/31 13:53:57;;;;;;;;;;;19.10;1.00;;;;;;5062100;28;19913;-82
2021/12/31 13:56:32;;;;;;;;;;;18.60;1.00;;;;;;5061537;28;19962;-82
2021/12/31 13:58:57;;;;;;;;;;;18.20;1.00;;;;;;5080073;28;19909;-82
2021/12/31 14:01:23;;;;;;;;;;;17.70;1.00;;;;;;5063394;28;19962;-82
2021/12/31 14:04:08;;;;;;;;;;;17.40;1.00;;;;;;5080741;28;19908;-81
2021/12/31 14:06:33;;;;;;;;;;;17.20;1.00;;;;;;5063884;28;20332;-82
2021/12/31 14:08:58;;;;;;;;;;;17.60;1.00;;;;;;5053032;28;19964;-82
2021/12/31 14:11:24;;;;;;;;;;;17.90;1.00;;;;;;5080216;28;20277;-81
2021/12/31 14:13:49;;;;;;;;;;;18.10;1.00;;;;;;5061332;28;20396;-81
2021/12/31 14:16:15;;;;;;;;;;;18.20;1.00;;;;;;5079471;28;19915;-81
2021/12/31 14:18:40;;;;;;;;;;;18.30;1.00;;;;;;5079729;28;19909;-82
2021/12/31 14:21:06;;;;;;;;;;;18.10;1.00;;;;;;5080004;28;20179;-82
2021/12/31 14:23:31;;;;;;;;;;;17.70;1.00;;;;;;5079552;28;19940;-82
2021/12/31 14:25:57;;;;;;;;;;;17.60;1.00;;;;;;5079452;28;19912;-81
2021/12/31 14:28:22;;;;;;;;;;;17.60;1.00;;;;;;5062953;28;20484;-81
2021/12/31 14:30:48;;;;;;;;;;;17.60;1.00;;;;;;5079873;28;19909;-82
2021/12/31 14:33:13;;;;;;;;;;;17.70;1.00;;;;;;5061926;28;19987;-82
2021/12/31 14:35:44;;;;;;;;;;;17.80;1.00;;;;;;5078974;28;19908;-81